ěÝzenÝ letovÚho provozu ╚eskÚ republiky
Letiste: LKPJ Aktualizace: 24.09.2020 16:30:26  UTC
 METAR LKPJ 24.09. 16:30 ...
METAR LKPJ 241630Z AUTO 14004KT 9999 FEW130 20/14 Q1008=